sensor_id;sensor_type;location;lat;lon;timestamp;P1;durP1;ratioP1;P2;durP2;ratioP2
65358;SDS011;52491;45.900;6.346;2023-04-24T00:00:34;1.23;;;0.93;;
65358;SDS011;52491;45.900;6.346;2023-04-24T00:03:01;0.80;;;0.65;;
65358;SDS011;52491;45.900;6.346;2023-04-24T00:05:28;0.73;;;0.70;;
65358;SDS011;52491;45.900;6.346;2023-04-24T00:07:54;1.15;;;1.05;;
65358;SDS011;52491;45.900;6.346;2023-04-24T00:10:20;1.15;;;0.60;;
65358;SDS011;52491;45.900;6.346;2023-04-24T00:12:46;2.42;;;1.25;;
65358;SDS011;52491;45.900;6.346;2023-04-24T00:15:11;1.25;;;1.05;;
65358;SDS011;52491;45.900;6.346;2023-04-24T00:17:37;0.80;;;0.70;;
65358;SDS011;52491;45.900;6.346;2023-04-24T00:20:03;1.63;;;0.80;;
65358;SDS011;52491;45.900;6.346;2023-04-24T00:22:29;0.82;;;0.70;;
65358;SDS011;52491;45.900;6.346;2023-04-24T00:24:56;0.90;;;0.60;;
65358;SDS011;52491;45.900;6.346;2023-04-24T00:27:21;1.27;;;0.75;;
65358;SDS011;52491;45.900;6.346;2023-04-24T00:29:47;1.02;;;0.93;;
65358;SDS011;52491;45.900;6.346;2023-04-24T00:32:13;0.88;;;0.70;;
65358;SDS011;52491;45.900;6.346;2023-04-24T00:34:39;0.80;;;0.80;;
65358;SDS011;52491;45.900;6.346;2023-04-24T00:37:05;0.80;;;0.65;;
65358;SDS011;52491;45.900;6.346;2023-04-24T00:39:31;0.73;;;0.50;;
65358;SDS011;52491;45.900;6.346;2023-04-24T00:41:56;0.95;;;0.75;;
65358;SDS011;52491;45.900;6.346;2023-04-24T00:44:22;0.77;;;0.55;;
65358;SDS011;52491;45.900;6.346;2023-04-24T00:46:48;0.88;;;0.80;;
65358;SDS011;52491;45.900;6.346;2023-04-24T00:49:22;0.60;;;0.60;;
65358;SDS011;52491;45.900;6.346;2023-04-24T00:51:48;1.67;;;0.73;;
65358;SDS011;52491;45.900;6.346;2023-04-24T00:54:14;2.42;;;0.77;;
65358;SDS011;52491;45.900;6.346;2023-04-24T00:56:41;0.80;;;0.55;;
65358;SDS011;52491;45.900;6.346;2023-04-24T00:59:07;1.08;;;0.88;;
65358;SDS011;52491;45.900;6.346;2023-04-24T01:01:33;0.80;;;0.70;;
65358;SDS011;52491;45.900;6.346;2023-04-24T01:04:00;0.90;;;0.65;;
65358;SDS011;52491;45.900;6.346;2023-04-24T01:06:27;0.80;;;0.80;;
65358;SDS011;52491;45.900;6.346;2023-04-24T01:08:54;2.15;;;0.60;;
65358;SDS011;52491;45.900;6.346;2023-04-24T01:11:21;0.55;;;0.47;;
65358;SDS011;52491;45.900;6.346;2023-04-24T01:13:47;2.13;;;0.77;;
65358;SDS011;52491;45.900;6.346;2023-04-24T01:16:13;0.63;;;0.40;;
65358;SDS011;52491;45.900;6.346;2023-04-24T01:18:40;0.70;;;0.70;;
65358;SDS011;52491;45.900;6.346;2023-04-24T01:21:06;0.55;;;0.52;;
65358;SDS011;52491;45.900;6.346;2023-04-24T01:23:33;1.95;;;0.77;;
65358;SDS011;52491;45.900;6.346;2023-04-24T01:26:00;0.70;;;0.60;;
65358;SDS011;52491;45.900;6.346;2023-04-24T01:28:25;1.38;;;0.70;;
65358;SDS011;52491;45.900;6.346;2023-04-24T01:30:51;0.65;;;0.57;;
65358;SDS011;52491;45.900;6.346;2023-04-24T01:33:17;0.80;;;0.70;;
65358;SDS011;52491;45.900;6.346;2023-04-24T01:35:43;0.52;;;0.50;;
65358;SDS011;52491;45.900;6.346;2023-04-24T01:38:09;1.05;;;0.60;;
65358;SDS011;52491;45.900;6.346;2023-04-24T01:40:34;0.52;;;0.52;;
65358;SDS011;52491;45.900;6.346;2023-04-24T01:43:00;0.73;;;0.60;;
65358;SDS011;52491;45.900;6.346;2023-04-24T01:45:25;0.65;;;0.60;;
65358;SDS011;52491;45.900;6.346;2023-04-24T01:47:51;0.50;;;0.50;;
65358;SDS011;52491;45.900;6.346;2023-04-24T01:50:17;0.45;;;0.45;;
65358;SDS011;52491;45.900;6.346;2023-04-24T01:52:44;1.98;;;0.43;;
65358;SDS011;52491;45.900;6.346;2023-04-24T01:55:09;0.47;;;0.47;;
65358;SDS011;52491;45.900;6.346;2023-04-24T01:57:35;1.83;;;0.60;;
65358;SDS011;52491;45.900;6.346;2023-04-24T02:00:02;2.03;;;0.70;;
65358;SDS011;52491;45.900;6.346;2023-04-24T02:02:32;2.38;;;0.80;;
65358;SDS011;52491;45.900;6.346;2023-04-24T02:04:58;0.43;;;0.40;;
65358;SDS011;52491;45.900;6.346;2023-04-24T02:07:24;0.50;;;0.40;;
65358;SDS011;52491;45.900;6.346;2023-04-24T02:09:49;0.40;;;0.40;;
65358;SDS011;52491;45.900;6.346;2023-04-24T02:12:15;0.38;;;0.30;;
65358;SDS011;52491;45.900;6.346;2023-04-24T02:14:42;0.30;;;0.30;;
65358;SDS011;52491;45.900;6.346;2023-04-24T02:17:08;0.73;;;0.43;;
65358;SDS011;52491;45.900;6.346;2023-04-24T02:19:33;0.47;;;0.47;;
65358;SDS011;52491;45.900;6.346;2023-04-24T02:21:59;0.52;;;0.52;;
65358;SDS011;52491;45.900;6.346;2023-04-24T02:24:25;0.45;;;0.45;;
65358;SDS011;52491;45.900;6.346;2023-04-24T02:26:51;1.95;;;0.47;;
65358;SDS011;52491;45.900;6.346;2023-04-24T02:29:16;0.98;;;0.80;;
65358;SDS011;52491;45.900;6.346;2023-04-24T02:31:42;0.30;;;0.30;;
65358;SDS011;52491;45.900;6.346;2023-04-24T02:34:07;1.13;;;0.40;;
65358;SDS011;52491;45.900;6.346;2023-04-24T02:36:33;1.00;;;0.40;;
65358;SDS011;52491;45.900;6.346;2023-04-24T02:38:58;0.25;;;0.20;;
65358;SDS011;52491;45.900;6.346;2023-04-24T02:41:26;1.20;;;0.65;;
65358;SDS011;52491;45.900;6.346;2023-04-24T02:43:57;0.38;;;0.32;;
65358;SDS011;52491;45.900;6.346;2023-04-24T02:46:23;1.13;;;0.47;;
65358;SDS011;52491;45.900;6.346;2023-04-24T02:48:48;0.50;;;0.30;;
65358;SDS011;52491;45.900;6.346;2023-04-24T02:51:14;0.70;;;0.50;;
65358;SDS011;52491;45.900;6.346;2023-04-24T02:53:40;0.50;;;0.47;;
65358;SDS011;52491;45.900;6.346;2023-04-24T02:56:05;0.38;;;0.25;;
65358;SDS011;52491;45.900;6.346;2023-04-24T02:58:31;0.47;;;0.43;;
65358;SDS011;52491;45.900;6.346;2023-04-24T03:00:56;0.50;;;0.50;;
65358;SDS011;52491;45.900;6.346;2023-04-24T03:03:22;0.73;;;0.50;;
65358;SDS011;52491;45.900;6.346;2023-04-24T03:05:48;0.40;;;0.40;;
65358;SDS011;52491;45.900;6.346;2023-04-24T03:08:14;0.40;;;0.38;;
65358;SDS011;52491;45.900;6.346;2023-04-24T03:10:40;0.90;;;0.60;;
65358;SDS011;52491;45.900;6.346;2023-04-24T03:13:05;0.40;;;0.30;;
65358;SDS011;52491;45.900;6.346;2023-04-24T03:15:31;0.30;;;0.30;;
65358;SDS011;52491;45.900;6.346;2023-04-24T03:17:56;0.38;;;0.38;;
65358;SDS011;52491;45.900;6.346;2023-04-24T03:20:22;0.68;;;0.68;;
65358;SDS011;52491;45.900;6.346;2023-04-24T03:22:48;0.65;;;0.35;;
65358;SDS011;52491;45.900;6.346;2023-04-24T03:25:14;1.48;;;0.45;;
65358;SDS011;52491;45.900;6.346;2023-04-24T03:27:39;0.77;;;0.30;;
65358;SDS011;52491;45.900;6.346;2023-04-24T03:30:08;0.45;;;0.30;;
65358;SDS011;52491;45.900;6.346;2023-04-24T03:32:34;1.13;;;0.40;;
65358;SDS011;52491;45.900;6.346;2023-04-24T03:35:00;1.73;;;0.40;;
65358;SDS011;52491;45.900;6.346;2023-04-24T03:37:26;0.50;;;0.40;;
65358;SDS011;52491;45.900;6.346;2023-04-24T03:39:51;1.25;;;0.30;;
65358;SDS011;52491;45.900;6.346;2023-04-24T03:42:17;0.40;;;0.35;;
65358;SDS011;52491;45.900;6.346;2023-04-24T03:44:43;0.28;;;0.28;;
65358;SDS011;52491;45.900;6.346;2023-04-24T03:47:08;0.30;;;0.30;;
65358;SDS011;52491;45.900;6.346;2023-04-24T03:49:34;0.57;;;0.57;;
65358;SDS011;52491;45.900;6.346;2023-04-24T03:51:59;0.57;;;0.57;;
65358;SDS011;52491;45.900;6.346;2023-04-24T03:54:25;0.50;;;0.40;;
65358;SDS011;52491;45.900;6.346;2023-04-24T03:56:51;0.40;;;0.40;;
65358;SDS011;52491;45.900;6.346;2023-04-24T03:59:16;0.88;;;0.40;;
65358;SDS011;52491;45.900;6.346;2023-04-24T04:01:42;0.40;;;0.40;;
65358;SDS011;52491;45.900;6.346;2023-04-24T04:04:07;0.80;;;0.40;;
65358;SDS011;52491;45.900;6.346;2023-04-24T04:06:33;0.55;;;0.38;;
65358;SDS011;52491;45.900;6.346;2023-04-24T04:08:59;0.68;;;0.40;;
65358;SDS011;52491;45.900;6.346;2023-04-24T04:11:25;0.40;;;0.30;;
65358;SDS011;52491;45.900;6.346;2023-04-24T04:13:51;0.32;;;0.32;;
65358;SDS011;52491;45.900;6.346;2023-04-24T04:16:18;0.70;;;0.30;;
65358;SDS011;52491;45.900;6.346;2023-04-24T04:18:44;0.45;;;0.30;;
65358;SDS011;52491;45.900;6.346;2023-04-24T04:21:10;0.65;;;0.65;;
65358;SDS011;52491;45.900;6.346;2023-04-24T04:23:35;0.50;;;0.50;;
65358;SDS011;52491;45.900;6.346;2023-04-24T04:26:01;2.20;;;0.85;;
65358;SDS011;52491;45.900;6.346;2023-04-24T04:28:28;0.95;;;0.40;;
65358;SDS011;52491;45.900;6.346;2023-04-24T04:30:55;0.70;;;0.30;;
65358;SDS011;52491;45.900;6.346;2023-04-24T04:33:22;0.68;;;0.68;;
65358;SDS011;52491;45.900;6.346;2023-04-24T04:35:49;0.70;;;0.40;;
65358;SDS011;52491;45.900;6.346;2023-04-24T04:38:15;2.25;;;0.70;;
65358;SDS011;52491;45.900;6.346;2023-04-24T04:40:42;0.90;;;0.50;;
65358;SDS011;52491;45.900;6.346;2023-04-24T04:43:07;2.42;;;0.73;;
65358;SDS011;52491;45.900;6.346;2023-04-24T04:45:33;1.38;;;0.68;;
65358;SDS011;52491;45.900;6.346;2023-04-24T04:47:59;0.70;;;0.70;;
65358;SDS011;52491;45.900;6.346;2023-04-24T04:50:27;5.70;;;0.50;;
65358;SDS011;52491;45.900;6.346;2023-04-24T04:52:52;3.92;;;0.65;;
65358;SDS011;52491;45.900;6.346;2023-04-24T04:55:18;2.72;;;0.47;;
65358;SDS011;52491;45.900;6.346;2023-04-24T04:57:47;2.47;;;0.50;;
65358;SDS011;52491;45.900;6.346;2023-04-24T05:00:12;1.75;;;0.50;;
65358;SDS011;52491;45.900;6.346;2023-04-24T05:02:38;2.72;;;0.73;;
65358;SDS011;52491;45.900;6.346;2023-04-24T05:05:05;5.80;;;1.30;;
65358;SDS011;52491;45.900;6.346;2023-04-24T05:07:31;0.60;;;0.40;;
65358;SDS011;52491;45.900;6.346;2023-04-24T05:09:59;2.05;;;0.68;;
65358;SDS011;52491;45.900;6.346;2023-04-24T05:12:24;7.50;;;1.75;;
65358;SDS011;52491;45.900;6.346;2023-04-24T05:14:50;3.78;;;0.80;;
65358;SDS011;52491;45.900;6.346;2023-04-24T05:17:15;0.93;;;0.40;;
65358;SDS011;52491;45.900;6.346;2023-04-24T05:19:41;1.75;;;0.68;;
65358;SDS011;52491;45.900;6.346;2023-04-24T05:22:07;3.47;;;0.68;;
65358;SDS011;52491;45.900;6.346;2023-04-24T05:24:34;6.43;;;1.02;;
65358;SDS011;52491;45.900;6.346;2023-04-24T05:27:00;5.90;;;0.60;;
65358;SDS011;52491;45.900;6.346;2023-04-24T05:29:27;2.33;;;0.73;;
65358;SDS011;52491;45.900;6.346;2023-04-24T05:31:55;5.97;;;0.90;;
65358;SDS011;52491;45.900;6.346;2023-04-24T05:34:21;3.15;;;1.17;;
65358;SDS011;52491;45.900;6.346;2023-04-24T05:36:47;3.60;;;0.85;;
65358;SDS011;52491;45.900;6.346;2023-04-24T05:39:13;8.32;;;1.42;;
65358;SDS011;52491;45.900;6.346;2023-04-24T05:41:39;7.15;;;1.58;;
65358;SDS011;52491;45.900;6.346;2023-04-24T05:44:05;5.10;;;1.15;;
65358;SDS011;52491;45.900;6.346;2023-04-24T05:46:31;7.82;;;1.10;;
65358;SDS011;52491;45.900;6.346;2023-04-24T05:48:57;6.43;;;0.85;;
65358;SDS011;52491;45.900;6.346;2023-04-24T05:51:23;7.05;;;0.95;;
65358;SDS011;52491;45.900;6.346;2023-04-24T05:53:49;5.00;;;0.80;;
65358;SDS011;52491;45.900;6.346;2023-04-24T05:56:14;3.58;;;0.63;;
65358;SDS011;52491;45.900;6.346;2023-04-24T05:58:40;8.98;;;0.90;;
65358;SDS011;52491;45.900;6.346;2023-04-24T06:01:06;6.68;;;0.80;;
65358;SDS011;52491;45.900;6.346;2023-04-24T06:03:32;5.70;;;0.60;;
65358;SDS011;52491;45.900;6.346;2023-04-24T06:05:58;3.13;;;0.93;;
65358;SDS011;52491;45.900;6.346;2023-04-24T06:08:23;2.00;;;0.60;;
65358;SDS011;52491;45.900;6.346;2023-04-24T06:10:49;1.98;;;0.80;;
65358;SDS011;52491;45.900;6.346;2023-04-24T06:13:15;1.38;;;0.50;;
65358;SDS011;52491;45.900;6.346;2023-04-24T06:15:41;5.10;;;1.17;;
65358;SDS011;52491;45.900;6.346;2023-04-24T06:18:07;6.75;;;1.27;;
65358;SDS011;52491;45.900;6.346;2023-04-24T06:20:35;1.70;;;0.57;;
65358;SDS011;52491;45.900;6.346;2023-04-24T06:23:00;4.03;;;1.00;;
65358;SDS011;52491;45.900;6.346;2023-04-24T06:25:26;2.88;;;0.50;;
65358;SDS011;52491;45.900;6.346;2023-04-24T06:27:52;1.42;;;0.60;;
65358;SDS011;52491;45.900;6.346;2023-04-24T06:30:19;0.82;;;0.60;;
65358;SDS011;52491;45.900;6.346;2023-04-24T06:32:44;0.68;;;0.32;;
65358;SDS011;52491;45.900;6.346;2023-04-24T06:35:10;1.42;;;0.60;;
65358;SDS011;52491;45.900;6.346;2023-04-24T06:37:38;4.43;;;1.10;;
65358;SDS011;52491;45.900;6.346;2023-04-24T06:40:04;1.35;;;0.52;;
65358;SDS011;52491;45.900;6.346;2023-04-24T06:42:31;3.00;;;1.17;;
65358;SDS011;52491;45.900;6.346;2023-04-24T06:44:56;1.65;;;0.65;;
65358;SDS011;52491;45.900;6.346;2023-04-24T06:47:22;1.85;;;0.40;;
65358;SDS011;52491;45.900;6.346;2023-04-24T06:49:47;1.70;;;0.60;;
65358;SDS011;52491;45.900;6.346;2023-04-24T06:52:16;0.82;;;0.40;;
65358;SDS011;52491;45.900;6.346;2023-04-24T06:54:41;1.27;;;0.60;;
65358;SDS011;52491;45.900;6.346;2023-04-24T06:57:07;3.92;;;1.00;;
65358;SDS011;52491;45.900;6.346;2023-04-24T06:59:33;2.47;;;0.50;;
65358;SDS011;52491;45.900;6.346;2023-04-24T07:01:59;1.58;;;0.50;;
65358;SDS011;52491;45.900;6.346;2023-04-24T07:04:25;2.55;;;0.60;;
65358;SDS011;52491;45.900;6.346;2023-04-24T07:06:51;3.05;;;0.60;;
65358;SDS011;52491;45.900;6.346;2023-04-24T07:09:19;3.45;;;0.82;;
65358;SDS011;52491;45.900;6.346;2023-04-24T07:11:45;0.75;;;0.50;;
65358;SDS011;52491;45.900;6.346;2023-04-24T07:14:11;3.33;;;1.02;;
65358;SDS011;52491;45.900;6.346;2023-04-24T07:16:37;2.33;;;1.25;;
65358;SDS011;52491;45.900;6.346;2023-04-24T07:19:03;2.92;;;0.40;;
65358;SDS011;52491;45.900;6.346;2023-04-24T07:21:28;0.90;;;0.60;;
65358;SDS011;52491;45.900;6.346;2023-04-24T07:23:54;0.55;;;0.55;;
65358;SDS011;52491;45.900;6.346;2023-04-24T07:26:19;3.10;;;0.70;;
65358;SDS011;52491;45.900;6.346;2023-04-24T07:28:45;3.55;;;0.60;;
65358;SDS011;52491;45.900;6.346;2023-04-24T07:31:11;1.75;;;0.40;;
65358;SDS011;52491;45.900;6.346;2023-04-24T07:33:37;1.15;;;0.60;;
65358;SDS011;52491;45.900;6.346;2023-04-24T07:36:03;0.95;;;0.55;;
65358;SDS011;52491;45.900;6.346;2023-04-24T07:38:29;1.58;;;0.60;;
65358;SDS011;52491;45.900;6.346;2023-04-24T07:40:55;0.50;;;0.40;;
65358;SDS011;52491;45.900;6.346;2023-04-24T07:43:21;0.65;;;0.45;;
65358;SDS011;52491;45.900;6.346;2023-04-24T07:45:48;1.30;;;0.50;;
65358;SDS011;52491;45.900;6.346;2023-04-24T07:48:17;1.70;;;0.70;;
65358;SDS011;52491;45.900;6.346;2023-04-24T07:50:43;1.00;;;0.40;;
65358;SDS011;52491;45.900;6.346;2023-04-24T07:53:09;2.08;;;0.75;;
65358;SDS011;52491;45.900;6.346;2023-04-24T07:55:35;0.70;;;0.50;;
65358;SDS011;52491;45.900;6.346;2023-04-24T07:58:01;0.70;;;0.55;;
65358;SDS011;52491;45.900;6.346;2023-04-24T08:00:26;0.70;;;0.55;;
65358;SDS011;52491;45.900;6.346;2023-04-24T08:02:52;1.17;;;0.50;;
65358;SDS011;52491;45.900;6.346;2023-04-24T08:05:17;2.22;;;0.50;;
65358;SDS011;52491;45.900;6.346;2023-04-24T08:07:43;0.75;;;0.35;;
65358;SDS011;52491;45.900;6.346;2023-04-24T08:10:11;1.75;;;0.40;;
65358;SDS011;52491;45.900;6.346;2023-04-24T08:12:37;2.50;;;0.98;;
65358;SDS011;52491;45.900;6.346;2023-04-24T08:15:03;0.55;;;0.40;;
65358;SDS011;52491;45.900;6.346;2023-04-24T08:17:30;2.70;;;0.55;;
65358;SDS011;52491;45.900;6.346;2023-04-24T08:19:55;1.27;;;0.85;;
65358;SDS011;52491;45.900;6.346;2023-04-24T08:22:26;3.10;;;0.90;;
65358;SDS011;52491;45.900;6.346;2023-04-24T08:24:53;1.55;;;0.60;;
65358;SDS011;52491;45.900;6.346;2023-04-24T08:27:19;1.45;;;0.70;;
65358;SDS011;52491;45.900;6.346;2023-04-24T08:29:45;1.20;;;0.57;;
65358;SDS011;52491;45.900;6.346;2023-04-24T08:32:10;0.63;;;0.57;;
65358;SDS011;52491;45.900;6.346;2023-04-24T08:34:36;0.82;;;0.60;;
65358;SDS011;52491;45.900;6.346;2023-04-24T08:37:02;0.50;;;0.40;;
65358;SDS011;52491;45.900;6.346;2023-04-24T08:39:28;0.68;;;0.65;;
65358;SDS011;52491;45.900;6.346;2023-04-24T08:41:54;0.73;;;0.50;;
65358;SDS011;52491;45.900;6.346;2023-04-24T08:44:20;0.65;;;0.45;;
65358;SDS011;52491;45.900;6.346;2023-04-24T08:46:47;2.10;;;0.65;;
65358;SDS011;52491;45.900;6.346;2023-04-24T08:49:13;0.35;;;0.35;;
65358;SDS011;52491;45.900;6.346;2023-04-24T08:51:42;0.90;;;0.70;;
65358;SDS011;52491;45.900;6.346;2023-04-24T13:24:01;0.73;;;0.30;;
65358;SDS011;52491;45.900;6.346;2023-04-24T13:26:26;1.00;;;0.63;;
65358;SDS011;52491;45.900;6.346;2023-04-24T13:28:52;0.40;;;0.40;;
65358;SDS011;52491;45.900;6.346;2023-04-24T13:31:17;0.40;;;0.40;;
65358;SDS011;52491;45.900;6.346;2023-04-24T13:33:43;0.70;;;0.57;;
65358;SDS011;52491;45.900;6.346;2023-04-24T13:36:09;0.65;;;0.65;;
65358;SDS011;52491;45.900;6.346;2023-04-24T13:38:34;0.60;;;0.30;;
65358;SDS011;52491;45.900;6.346;2023-04-24T13:41:00;1.08;;;0.40;;
65358;SDS011;52491;45.900;6.346;2023-04-24T13:43:25;1.75;;;0.55;;
65358;SDS011;52491;45.900;6.346;2023-04-24T13:45:51;0.43;;;0.43;;
65358;SDS011;52491;45.900;6.346;2023-04-24T13:48:17;0.93;;;0.70;;
65358;SDS011;52491;45.900;6.346;2023-04-24T13:50:43;0.30;;;0.30;;
65358;SDS011;52491;45.900;6.346;2023-04-24T13:53:09;0.57;;;0.47;;
65358;SDS011;52491;45.900;6.346;2023-04-24T13:55:35;1.15;;;0.93;;
65358;SDS011;52491;45.900;6.346;2023-04-24T13:58:01;0.70;;;0.40;;
65358;SDS011;52491;45.900;6.346;2023-04-24T14:00:27;0.30;;;0.30;;
65358;SDS011;52491;45.900;6.346;2023-04-24T14:02:53;0.50;;;0.40;;
65358;SDS011;52491;45.900;6.346;2023-04-24T14:05:19;0.63;;;0.30;;
65358;SDS011;52491;45.900;6.346;2023-04-24T14:07:46;0.35;;;0.35;;
65358;SDS011;52491;45.900;6.346;2023-04-24T14:10:12;0.38;;;0.38;;
65358;SDS011;52491;45.900;6.346;2023-04-24T14:12:37;0.50;;;0.30;;
65358;SDS011;52491;45.900;6.346;2023-04-24T14:15:03;0.40;;;0.32;;
65358;SDS011;52491;45.900;6.346;2023-04-24T14:17:30;0.43;;;0.43;;
65358;SDS011;52491;45.900;6.346;2023-04-24T14:19:56;0.40;;;0.30;;
65358;SDS011;52491;45.900;6.346;2023-04-24T14:22:22;0.28;;;0.25;;
65358;SDS011;52491;45.900;6.346;2023-04-24T14:24:47;0.50;;;0.50;;
65358;SDS011;52491;45.900;6.346;2023-04-24T14:27:13;0.30;;;0.30;;
65358;SDS011;52491;45.900;6.346;2023-04-24T14:29:39;0.98;;;0.70;;
65358;SDS011;52491;45.900;6.346;2023-04-24T14:32:04;0.50;;;0.30;;
65358;SDS011;52491;45.900;6.346;2023-04-24T14:34:30;0.20;;;0.20;;
65358;SDS011;52491;45.900;6.346;2023-04-24T14:36:55;0.98;;;0.50;;
65358;SDS011;52491;45.900;6.346;2023-04-24T14:39:21;0.45;;;0.40;;
65358;SDS011;52491;45.900;6.346;2023-04-24T14:41:47;0.22;;;0.22;;
65358;SDS011;52491;45.900;6.346;2023-04-24T14:44:12;0.45;;;0.30;;
65358;SDS011;52491;45.900;6.346;2023-04-24T14:46:38;0.40;;;0.40;;
65358;SDS011;52491;45.900;6.346;2023-04-24T14:49:04;0.75;;;0.40;;
65358;SDS011;52491;45.900;6.346;2023-04-24T14:51:29;0.30;;;0.28;;
65358;SDS011;52491;45.900;6.346;2023-04-24T14:53:56;0.63;;;0.30;;
65358;SDS011;52491;45.900;6.346;2023-04-24T14:56:21;1.02;;;0.45;;
65358;SDS011;52491;45.900;6.346;2023-04-24T14:58:48;0.50;;;0.30;;
65358;SDS011;52491;45.900;6.346;2023-04-24T15:01:14;0.60;;;0.40;;
65358;SDS011;52491;45.900;6.346;2023-04-24T15:03:39;1.45;;;0.35;;
65358;SDS011;52491;45.900;6.346;2023-04-24T15:06:05;0.50;;;0.40;;
65358;SDS011;52491;45.900;6.346;2023-04-24T15:08:31;0.30;;;0.30;;
65358;SDS011;52491;45.900;6.346;2023-04-24T15:10:56;0.70;;;0.30;;
65358;SDS011;52491;45.900;6.346;2023-04-24T15:13:22;0.60;;;0.60;;
65358;SDS011;52491;45.900;6.346;2023-04-24T15:15:47;0.60;;;0.30;;
65358;SDS011;52491;45.900;6.346;2023-04-24T15:18:13;0.40;;;0.30;;
65358;SDS011;52491;45.900;6.346;2023-04-24T15:20:39;0.50;;;0.30;;
65358;SDS011;52491;45.900;6.346;2023-04-24T15:23:05;0.45;;;0.32;;
65358;SDS011;52491;45.900;6.346;2023-04-24T15:25:31;1.00;;;0.60;;
65358;SDS011;52491;45.900;6.346;2023-04-24T15:27:57;0.30;;;0.30;;
65358;SDS011;52491;45.900;6.346;2023-04-24T15:30:23;0.50;;;0.50;;
65358;SDS011;52491;45.900;6.346;2023-04-24T15:32:49;0.30;;;0.30;;
65358;SDS011;52491;45.900;6.346;2023-04-24T15:35:15;0.65;;;0.40;;
65358;SDS011;52491;45.900;6.346;2023-04-24T15:37:41;0.30;;;0.30;;
65358;SDS011;52491;45.900;6.346;2023-04-24T15:40:07;0.30;;;0.30;;
65358;SDS011;52491;45.900;6.346;2023-04-24T15:42:33;0.45;;;0.30;;
65358;SDS011;52491;45.900;6.346;2023-04-24T15:44:59;0.30;;;0.30;;
65358;SDS011;52491;45.900;6.346;2023-04-24T15:47:25;0.28;;;0.28;;
65358;SDS011;52491;45.900;6.346;2023-04-24T15:49:51;0.47;;;0.40;;
65358;SDS011;52491;45.900;6.346;2023-04-24T15:52:17;0.47;;;0.30;;
65358;SDS011;52491;45.900;6.346;2023-04-24T15:54:43;0.30;;;0.30;;
65358;SDS011;52491;45.900;6.346;2023-04-24T15:57:09;0.50;;;0.50;;
65358;SDS011;52491;45.900;6.346;2023-04-24T15:59:34;0.93;;;0.40;;
65358;SDS011;52491;45.900;6.346;2023-04-24T16:02:01;0.40;;;0.40;;
65358;SDS011;52491;45.900;6.346;2023-04-24T16:04:28;1.45;;;0.55;;
65358;SDS011;52491;45.900;6.346;2023-04-24T16:06:54;0.30;;;0.30;;
65358;SDS011;52491;45.900;6.346;2023-04-24T16:09:21;0.35;;;0.35;;
65358;SDS011;52491;45.900;6.346;2023-04-24T16:11:47;0.30;;;0.30;;
65358;SDS011;52491;45.900;6.346;2023-04-24T16:14:13;4.03;;;0.82;;
65358;SDS011;52491;45.900;6.346;2023-04-24T16:16:38;4.43;;;0.50;;
65358;SDS011;52491;45.900;6.346;2023-04-24T16:19:04;2.72;;;0.40;;
65358;SDS011;52491;45.900;6.346;2023-04-24T16:21:32;1.38;;;0.45;;
65358;SDS011;52491;45.900;6.346;2023-04-24T16:23:58;0.82;;;0.40;;
65358;SDS011;52491;45.900;6.346;2023-04-24T16:26:23;1.58;;;0.80;;
65358;SDS011;52491;45.900;6.346;2023-04-24T16:28:50;2.67;;;0.30;;
65358;SDS011;52491;45.900;6.346;2023-04-24T16:31:16;1.83;;;0.40;;
65358;SDS011;52491;45.900;6.346;2023-04-24T16:33:42;1.17;;;0.40;;
65358;SDS011;52491;45.900;6.346;2023-04-24T16:36:07;3.08;;;0.40;;
65358;SDS011;52491;45.900;6.346;2023-04-24T16:38:33;0.47;;;0.32;;
65358;SDS011;52491;45.900;6.346;2023-04-24T16:40:59;1.13;;;0.50;;
65358;SDS011;52491;45.900;6.346;2023-04-24T16:43:25;2.97;;;0.60;;
65358;SDS011;52491;45.900;6.346;2023-04-24T16:45:51;2.42;;;0.70;;
65358;SDS011;52491;45.900;6.346;2023-04-24T16:48:18;3.10;;;1.00;;
65358;SDS011;52491;45.900;6.346;2023-04-24T16:50:44;1.50;;;0.85;;
65358;SDS011;52491;45.900;6.346;2023-04-24T16:53:10;1.63;;;0.70;;
65358;SDS011;52491;45.900;6.346;2023-04-24T16:55:36;10.75;;;1.60;;
65358;SDS011;52491;45.900;6.346;2023-04-24T16:58:02;14.27;;;1.55;;
65358;SDS011;52491;45.900;6.346;2023-04-24T17:00:28;5.15;;;1.13;;
65358;SDS011;52491;45.900;6.346;2023-04-24T17:02:53;1.77;;;0.93;;
65358;SDS011;52491;45.900;6.346;2023-04-24T17:05:19;2.72;;;1.00;;
65358;SDS011;52491;45.900;6.346;2023-04-24T17:07:48;5.15;;;1.30;;
65358;SDS011;52491;45.900;6.346;2023-04-24T17:10:14;2.38;;;0.88;;
65358;SDS011;52491;45.900;6.346;2023-04-24T17:12:40;9.75;;;1.02;;
65358;SDS011;52491;45.900;6.346;2023-04-24T17:15:06;5.60;;;1.40;;
65358;SDS011;52491;45.900;6.346;2023-04-24T17:17:32;3.22;;;1.30;;
65358;SDS011;52491;45.900;6.346;2023-04-24T17:19:58;3.70;;;1.45;;
65358;SDS011;52491;45.900;6.346;2023-04-24T17:22:23;5.38;;;1.45;;
65358;SDS011;52491;45.900;6.346;2023-04-24T17:24:49;6.88;;;2.22;;
65358;SDS011;52491;45.900;6.346;2023-04-24T17:27:14;4.97;;;1.13;;
65358;SDS011;52491;45.900;6.346;2023-04-24T17:29:40;6.43;;;1.38;;
65358;SDS011;52491;45.900;6.346;2023-04-24T17:32:06;3.90;;;1.00;;
65358;SDS011;52491;45.900;6.346;2023-04-24T17:34:31;3.85;;;1.67;;
65358;SDS011;52491;45.900;6.346;2023-04-24T17:36:57;8.82;;;2.22;;
65358;SDS011;52491;45.900;6.346;2023-04-24T17:39:22;5.55;;;1.13;;
65358;SDS011;52491;45.900;6.346;2023-04-24T17:41:48;4.88;;;1.10;;
65358;SDS011;52491;45.900;6.346;2023-04-24T17:44:14;3.70;;;1.20;;
65358;SDS011;52491;45.900;6.346;2023-04-24T17:46:39;4.32;;;0.98;;
65358;SDS011;52491;45.900;6.346;2023-04-24T17:49:05;4.38;;;1.30;;
65358;SDS011;52491;45.900;6.346;2023-04-24T17:51:30;3.63;;;1.38;;
65358;SDS011;52491;45.900;6.346;2023-04-24T17:53:56;9.27;;;1.63;;
65358;SDS011;52491;45.900;6.346;2023-04-24T17:56:22;2.83;;;1.48;;
65358;SDS011;52491;45.900;6.346;2023-04-24T17:58:49;7.10;;;1.15;;
65358;SDS011;52491;45.900;6.346;2023-04-24T18:01:16;2.45;;;0.90;;
65358;SDS011;52491;45.900;6.346;2023-04-24T18:03:41;3.42;;;1.48;;
65358;SDS011;52491;45.900;6.346;2023-04-24T18:06:08;8.82;;;1.23;;
65358;SDS011;52491;45.900;6.346;2023-04-24T18:08:34;3.80;;;1.30;;
65358;SDS011;52491;45.900;6.346;2023-04-24T18:11:00;3.85;;;1.52;;
65358;SDS011;52491;45.900;6.346;2023-04-24T18:13:26;7.00;;;1.65;;
65358;SDS011;52491;45.900;6.346;2023-04-24T18:15:51;2.53;;;1.40;;
65358;SDS011;52491;45.900;6.346;2023-04-24T18:18:17;4.25;;;1.30;;
65358;SDS011;52491;45.900;6.346;2023-04-24T18:20:43;4.00;;;1.38;;
65358;SDS011;52491;45.900;6.346;2023-04-24T18:23:08;3.22;;;1.02;;
65358;SDS011;52491;45.900;6.346;2023-04-24T18:25:34;2.75;;;0.95;;
65358;SDS011;52491;45.900;6.346;2023-04-24T18:27:59;3.00;;;1.15;;
65358;SDS011;52491;45.900;6.346;2023-04-24T18:30:25;4.22;;;1.17;;
65358;SDS011;52491;45.900;6.346;2023-04-24T18:32:52;3.85;;;1.40;;
65358;SDS011;52491;45.900;6.346;2023-04-24T18:35:18;1.52;;;0.93;;
65358;SDS011;52491;45.900;6.346;2023-04-24T18:37:44;6.22;;;1.40;;
65358;SDS011;52491;45.900;6.346;2023-04-24T18:40:10;3.53;;;1.27;;
65358;SDS011;52491;45.900;6.346;2023-04-24T18:42:37;1.77;;;0.93;;
65358;SDS011;52491;45.900;6.346;2023-04-24T18:45:03;6.57;;;1.08;;
65358;SDS011;52491;45.900;6.346;2023-04-24T18:47:29;1.63;;;0.90;;
65358;SDS011;52491;45.900;6.346;2023-04-24T18:49:55;4.10;;;0.90;;
65358;SDS011;52491;45.900;6.346;2023-04-24T18:52:21;2.30;;;1.00;;
65358;SDS011;52491;45.900;6.346;2023-04-24T18:54:47;3.15;;;1.30;;
65358;SDS011;52491;45.900;6.346;2023-04-24T18:57:13;1.08;;;0.95;;
65358;SDS011;52491;45.900;6.346;2023-04-24T18:59:39;1.60;;;0.85;;
65358;SDS011;52491;45.900;6.346;2023-04-24T19:02:04;2.30;;;1.40;;
65358;SDS011;52491;45.900;6.346;2023-04-24T19:04:30;3.20;;;0.98;;
65358;SDS011;52491;45.900;6.346;2023-04-24T19:06:56;3.10;;;1.35;;
65358;SDS011;52491;45.900;6.346;2023-04-24T19:09:22;5.10;;;1.17;;